Time;durP1;ratioP1;P1;durP2;ratioP2;P2;SDS_P1;SDS_P2;PMS_P1;PMS_P2;Temp;Humidity;BMP_temperature;BMP_pressure;BME280_temperature;BME280_humidity;BME280_pressure;Samples;Min_cycle;Max_cycle;Signal;HPM_P1;HPM_P2
2023/05/29 00:00:48;;;;;;;0.60;0.60;;;13.90;99.90;;;;;;5033891;28;20682;-75
2023/05/29 00:03:18;;;;;;;0.80;0.20;;;14.00;99.90;;;;;;5034515;28;20611;-75
2023/05/29 00:05:49;;;;;;;0.40;0.40;;;14.10;99.90;;;;;;5033669;28;21699;-75
2023/05/29 00:08:20;;;;;;;1.20;0.70;;;14.20;99.90;;;;;;5035576;28;20429;-75
2023/05/29 00:10:46;;;;;;;1.30;0.55;;;14.30;99.90;;;;;;5035535;28;20445;-75
2023/05/29 00:13:13;;;;;;;0.45;0.45;;;14.40;99.90;;;;;;5035535;28;20980;-76
2023/05/29 00:15:40;;;;;;;10.05;0.52;;;14.40;99.90;;;;;;5031391;28;20562;-75
2023/05/29 00:18:11;;;;;;;0.40;0.35;;;14.40;99.90;;;;;;5033335;28;20437;-75
2023/05/29 00:20:38;;;;;;;0.50;0.50;;;14.40;99.90;;;;;;5034209;28;21021;-75
2023/05/29 00:23:29;;;;;;;0.32;0.25;;;14.40;99.90;;;;;;5037276;28;20494;-75
2023/05/29 00:25:59;;;;;;;0.70;0.70;;;14.40;99.90;;;;;;5036248;28;20424;-75
2023/05/29 00:28:25;;;;;;;1.60;0.63;;;14.40;99.90;;;;;;5035437;28;20433;-75
2023/05/29 00:30:52;;;;;;;0.32;0.32;;;14.40;99.90;;;;;;5034803;28;20792;-75
2023/05/29 00:33:20;;;;;;;4.50;0.30;;;14.40;99.90;;;;;;5036678;28;20515;-75
2023/05/29 00:35:51;;;;;;;0.93;0.60;;;14.40;99.90;;;;;;5027759;28;20469;-75
2023/05/29 00:38:18;;;;;;;0.30;0.30;;;14.40;99.90;;;;;;5033453;28;20437;-74
2023/05/29 00:40:44;;;;;;;0.30;0.30;;;14.40;99.90;;;;;;5032425;28;20464;-75
2023/05/29 00:43:11;;;;;;;0.20;0.20;;;14.30;99.90;;;;;;5033032;28;20512;-75
2023/05/29 00:45:38;;;;;;;0.30;0.20;;;14.30;99.90;;;;;;5029934;28;20461;-76
2023/05/29 00:48:08;;;;;;;0.30;0.30;;;14.20;99.90;;;;;;5032976;28;20781;-76
2023/05/29 00:50:35;;;;;;;0.50;0.50;;;14.20;99.90;;;;;;5030486;28;20535;-76
2023/05/29 00:53:02;;;;;;;0.45;0.45;;;14.10;99.90;;;;;;5031594;28;20447;-76
2023/05/29 00:55:29;;;;;;;0.95;0.60;;;14.10;99.90;;;;;;5059534;28;20435;-76
2023/05/29 00:57:56;;;;;;;0.45;0.45;;;14.10;99.90;;;;;;5030735;28;20520;-76
2023/05/29 01:00:26;;;;;;;0.80;0.60;;;14.10;99.90;;;;;;5030676;28;20445;-76
2023/05/29 01:02:53;;;;;;;0.20;0.20;;;14.10;99.90;;;;;;5030646;28;20953;-76
2023/05/29 01:05:21;;;;;;;0.98;0.75;;;14.00;99.90;;;;;;5031879;28;20467;-75
2023/05/29 01:07:50;;;;;;;1.05;0.52;;;14.00;99.90;;;;;;5030368;28;20570;-76
2023/05/29 01:10:17;;;;;;;0.20;0.20;;;14.00;99.90;;;;;;5061588;28;20812;-76
2023/05/29 01:12:51;;;;;;;0.50;0.50;;;14.00;99.90;;;;;;5061516;28;20536;-76
2023/05/29 01:15:30;;;;;;;0.40;0.40;;;14.00;99.90;;;;;;5035025;28;21298;-75
2023/05/29 01:18:17;;;;;;;0.20;0.20;;;13.90;99.90;;;;;;5033443;28;20556;-76
2023/05/29 01:20:52;;;;;;;0.20;0.20;;;13.80;99.90;;;;;;5035052;28;20435;-76
2023/05/29 01:23:27;;;;;;;1.02;0.47;;;13.90;99.90;;;;;;5029177;28;21746;-74
2023/05/29 01:26:22;;;;;;;1.10;1.10;;;13.90;99.90;;;;;;5034024;28;21108;-75
2023/05/29 01:28:52;;;;;;;1.45;0.63;;;13.90;99.90;;;;;;5035996;28;20449;-74
2023/05/29 01:31:23;;;;;;;0.40;0.40;;;13.80;99.90;;;;;;5037183;28;20437;-75
2023/05/29 01:33:58;;;;;;;0.30;0.30;;;13.70;99.90;;;;;;5036016;28;20446;-76
2023/05/29 01:36:26;;;;;;;0.22;0.22;;;13.60;99.90;;;;;;5035925;28;20449;-75
2023/05/29 01:38:55;;;;;;;0.40;0.40;;;13.50;99.90;;;;;;5033559;28;20532;-76
2023/05/29 01:41:24;;;;;;;0.55;0.55;;;13.40;99.90;;;;;;5031394;28;20430;-76
2023/05/29 01:43:51;;;;;;;0.40;0.40;;;13.40;99.90;;;;;;5033399;28;20960;-76
2023/05/29 01:46:19;;;;;;;0.30;0.30;;;13.30;99.90;;;;;;5033991;28;20818;-76
2023/05/29 01:48:47;;;;;;;0.52;0.52;;;13.20;99.90;;;;;;5030132;28;20433;-74
2023/05/29 01:51:13;;;;;;;0.60;0.60;;;13.10;99.90;;;;;;5028900;28;20554;-75
2023/05/29 01:53:44;;;;;;;0.68;0.68;;;13.10;99.90;;;;;;5035901;28;20431;-74
2023/05/29 01:56:11;;;;;;;0.30;0.30;;;13.00;99.90;;;;;;5032230;28;20425;-75
2023/05/29 01:58:39;;;;;;;0.65;0.50;;;13.00;99.90;;;;;;5032624;28;20523;-74
2023/05/29 02:01:07;;;;;;;0.40;0.40;;;13.10;99.90;;;;;;5034213;28;20789;-75
2023/05/29 02:03:35;;;;;;;13.73;12.57;;;13.10;99.90;;;;;;5031426;28;20491;-75
2023/05/29 02:06:02;;;;;;;0.20;0.20;;;13.20;99.90;;;;;;5032191;28;20433;-75
2023/05/29 02:08:31;;;;;;;0.20;0.20;;;13.30;99.90;;;;;;5032661;28;20806;-75
2023/05/29 02:10:58;;;;;;;3.97;3.65;;;13.20;99.90;;;;;;5035029;28;20507;-74
2023/05/29 02:13:25;;;;;;;0.20;0.20;;;13.20;99.90;;;;;;5030320;28;20478;-75
2023/05/29 02:15:51;;;;;;;0.43;0.43;;;13.10;99.90;;;;;;5033986;28;20441;-75
2023/05/29 02:18:18;;;;;;;33.00;29.85;;;13.10;99.90;;;;;;5031540;28;20520;-75
2023/05/29 02:20:45;;;;;;;149.02;134.23;;;13.10;99.90;;;;;;5034425;28;20460;-75
2023/05/29 02:23:13;;;;;;;55.70;50.60;;;13.10;99.90;;;;;;5062614;28;20443;-75
2023/05/29 02:25:40;;;;;;;0.20;0.20;;;13.00;99.90;;;;;;5031561;28;20519;-75
2023/05/29 02:28:07;;;;;;;0.50;0.50;;;13.00;99.90;;;;;;5032287;28;20444;-75
2023/05/29 02:30:35;;;;;;;0.10;0.10;;;12.90;99.90;;;;;;5037988;28;20449;-74
2023/05/29 02:33:01;;;;;;;3.97;0.38;;;12.80;99.90;;;;;;5065032;28;20445;-74
2023/05/29 02:35:28;;;;;;;0.30;0.30;;;12.70;99.90;;;;;;5033816;28;20906;-75
2023/05/29 02:37:55;;;;;;;0.13;0.13;;;12.60;99.90;;;;;;5032828;28;20473;-75
2023/05/29 02:40:23;;;;;;;0.30;0.30;;;12.60;99.90;;;;;;5031514;28;20444;-75
2023/05/29 02:42:52;;;;;;;0.30;0.25;;;12.60;99.90;;;;;;5064594;28;20429;-75
2023/05/29 02:45:19;;;;;;;0.20;0.20;;;12.70;99.90;;;;;;5033531;28;20437;-75
2023/05/29 02:47:46;;;;;;;0.20;0.20;;;12.70;99.90;;;;;;5032871;28;20516;-75
2023/05/29 02:50:14;;;;;;;0.35;0.25;;;12.80;99.90;;;;;;5065062;28;20440;-75
2023/05/29 02:52:41;;;;;;;10.32;9.65;;;12.90;99.90;;;;;;5033374;28;20768;-75
2023/05/29 02:55:08;;;;;;;1.20;0.70;;;12.90;99.90;;;;;;5065973;28;20811;-75
2023/05/29 02:57:35;;;;;;;0.70;0.40;;;12.80;99.90;;;;;;5030623;28;20925;-75
2023/05/29 03:00:06;;;;;;;0.13;0.13;;;12.80;99.90;;;;;;5032957;28;20433;-75
2023/05/29 03:02:33;;;;;;;9.10;8.20;;;12.80;99.90;;;;;;5034737;28;21001;-75
2023/05/29 03:05:03;;;;;;;0.80;0.50;;;12.70;99.90;;;;;;5030316;28;20457;-75
2023/05/29 03:07:30;;;;;;;2.50;0.67;;;12.80;99.90;;;;;;5031261;28;20448;-75
2023/05/29 03:09:57;;;;;;;0.30;0.30;;;12.80;99.90;;;;;;5064716;28;20512;-75
2023/05/29 03:12:27;;;;;;;0.43;0.43;;;12.80;99.90;;;;;;5062234;28;20651;-75
2023/05/29 03:14:56;;;;;;;0.32;0.32;;;12.80;99.90;;;;;;5033465;28;21129;-75
2023/05/29 03:17:23;;;;;;;0.80;0.40;;;12.80;99.90;;;;;;5033049;28;22695;-75
2023/05/29 03:19:50;;;;;;;5.10;0.80;;;12.90;99.90;;;;;;5034984;28;20437;-75
2023/05/29 03:22:18;;;;;;;0.70;0.70;;;12.90;99.90;;;;;;5035895;28;22325;-75
2023/05/29 03:24:45;;;;;;;0.50;0.50;;;13.00;99.90;;;;;;5064918;28;20977;-75
2023/05/29 03:27:12;;;;;;;0.20;0.20;;;13.00;99.90;;;;;;5034805;28;20452;-74
2023/05/29 03:29:39;;;;;;;7.30;0.40;;;12.90;99.90;;;;;;5031811;28;20432;-75
2023/05/29 03:32:06;;;;;;;0.20;0.20;;;13.00;99.90;;;;;;5033711;28;20496;-74
2023/05/29 03:34:34;;;;;;;1.17;0.38;;;13.00;99.90;;;;;;5032261;28;20461;-75
2023/05/29 03:37:00;;;;;;;0.28;0.28;;;13.10;99.90;;;;;;5029614;28;20491;-75
2023/05/29 03:39:27;;;;;;;3.60;3.33;;;13.20;99.90;;;;;;5031770;28;20432;-75
2023/05/29 03:41:54;;;;;;;0.10;0.10;;;13.30;99.90;;;;;;5031894;28;20843;-76
2023/05/29 03:44:21;;;;;;;0.25;0.25;;;13.40;99.90;;;;;;5030943;28;20441;-75
2023/05/29 03:46:48;;;;;;;0.17;0.17;;;13.50;99.90;;;;;;5032568;28;20597;-75
2023/05/29 03:49:15;;;;;;;7.97;7.27;;;13.50;99.90;;;;;;5026842;28;20931;-76
2023/05/29 03:51:42;;;;;;;0.43;0.43;;;13.50;99.90;;;;;;5029738;28;20476;-75
2023/05/29 03:54:09;;;;;;;1.20;0.60;;;13.50;99.90;;;;;;5026714;28;20437;-75
2023/05/29 03:56:35;;;;;;;0.23;0.23;;;13.60;99.90;;;;;;5060798;28;20525;-76
2023/05/29 03:59:02;;;;;;;0.40;0.40;;;13.60;99.90;;;;;;5032485;28;20440;-74
2023/05/29 04:01:29;;;;;;;0.60;0.60;;;13.70;99.90;;;;;;5036915;28;20424;-76
2023/05/29 04:03:56;;;;;;;0.60;0.40;;;13.70;99.90;;;;;;5036320;28;20794;-74
2023/05/29 04:06:23;;;;;;;0.60;0.60;;;13.80;99.90;;;;;;5031495;28;20435;-76
2023/05/29 04:08:50;;;;;;;0.20;0.20;;;13.90;99.90;;;;;;5030704;28;20431;-76
2023/05/29 04:11:17;;;;;;;5.18;4.68;;;14.00;99.90;;;;;;5032708;28;20632;-76
2023/05/29 04:13:43;;;;;;;0.15;0.15;;;14.00;99.90;;;;;;5032326;28;20526;-76
2023/05/29 04:16:10;;;;;;;0.30;0.30;;;14.10;99.90;;;;;;5030651;28;20441;-76
2023/05/29 04:18:37;;;;;;;0.50;0.50;;;14.10;99.90;;;;;;5029855;28;20428;-76
2023/05/29 04:21:10;;;;;;;0.28;0.28;;;14.20;99.90;;;;;;5063238;28;20537;-77
2023/05/29 04:23:39;;;;;;;0.60;0.60;;;14.20;99.90;;;;;;5030995;28;20512;-76
2023/05/29 04:26:06;;;;;;;0.50;0.40;;;14.20;99.90;;;;;;5030921;28;20435;-76
2023/05/29 04:28:32;;;;;;;0.30;0.30;;;14.20;99.90;;;;;;5061754;28;20435;-75
2023/05/29 04:31:00;;;;;;;0.60;0.55;;;14.20;99.90;;;;;;5032337;28;20860;-76
2023/05/29 04:33:28;;;;;;;5.03;4.57;;;14.30;99.90;;;;;;5031925;28;20429;-75
2023/05/29 04:35:55;;;;;;;1.10;0.63;;;14.30;99.90;;;;;;5032274;28;22452;-76
2023/05/29 04:38:24;;;;;;;0.65;0.65;;;14.40;99.90;;;;;;5030783;28;20530;-76
2023/05/29 04:40:57;;;;;;;9.35;0.60;;;14.60;99.90;;;;;;5028351;28;20433;-77
2023/05/29 04:43:26;;;;;;;0.22;0.22;;;15.10;99.90;;;;;;5032270;28;20549;-76
2023/05/29 04:45:53;;;;;;;0.30;0.30;;;15.70;99.90;;;;;;5031049;28;20428;-75
2023/05/29 04:48:20;;;;;;;0.50;0.35;;;16.20;99.90;;;;;;5030952;28;20448;-75
2023/05/29 04:50:48;;;;;;;0.22;0.22;;;16.50;99.90;;;;;;5032517;28;20439;-76
2023/05/29 04:53:15;;;;;;;0.50;0.50;;;16.80;99.90;;;;;;5028907;28;20507;-75
2023/05/29 04:55:44;;;;;;;1.30;0.40;;;17.00;99.90;;;;;;5031923;28;20451;-75
2023/05/29 04:58:12;;;;;;;0.60;0.40;;;17.20;99.90;;;;;;5031520;28;21049;-75
2023/05/29 05:00:39;;;;;;;1.10;1.00;;;17.30;99.90;;;;;;5033126;28;20457;-76
2023/05/29 05:03:06;;;;;;;2.00;0.77;;;17.50;99.90;;;;;;5027452;28;20426;-76
2023/05/29 05:05:33;;;;;;;0.40;0.40;;;17.60;99.90;;;;;;5030023;28;20426;-75
2023/05/29 05:08:00;;;;;;;0.35;0.35;;;17.60;99.90;;;;;;5029631;28;20510;-75
2023/05/29 05:10:27;;;;;;;0.30;0.30;;;17.80;99.90;;;;;;5033297;28;20437;-75
2023/05/29 05:12:53;;;;;;;0.40;0.40;;;18.10;99.90;;;;;;5062548;28;20772;-75
2023/05/29 05:15:20;;;;;;;0.50;0.50;;;18.30;99.90;;;;;;5028628;28;20784;-76
2023/05/29 05:17:48;;;;;;;506.17;457.70;;;18.50;99.90;;;;;;5026630;28;21324;-75
2023/05/29 05:20:16;;;;;;;165.85;149.90;;;18.60;99.90;;;;;;5018917;28;20447;-76
2023/05/29 05:22:43;;;;;;;0.90;0.30;;;18.70;99.90;;;;;;5027323;28;20472;-76
2023/05/29 05:25:09;;;;;;;620.53;558.50;;;18.80;99.90;;;;;;5023833;28;20421;-76
2023/05/29 05:27:36;;;;;;;3.20;3.00;;;18.90;99.90;;;;;;5024446;28;20864;-76
2023/05/29 05:30:04;;;;;;;0.38;0.38;;;18.90;99.90;;;;;;5024821;28;20955;-75
2023/05/29 05:32:31;;;;;;;2.58;0.88;;;19.00;99.90;;;;;;5028262;28;20722;-76
2023/05/29 05:34:58;;;;;;;0.25;0.25;;;19.10;99.90;;;;;;5061825;28;20866;-76
2023/05/29 05:37:24;;;;;;;0.55;0.55;;;19.40;99.90;;;;;;5022069;28;20949;-76
2023/05/29 05:39:53;;;;;;;0.50;0.45;;;19.40;99.90;;;;;;5028261;28;20432;-74
2023/05/29 05:42:20;;;;;;;0.80;0.60;;;19.40;99.90;;;;;;5026595;28;20859;-76
2023/05/29 05:44:47;;;;;;;0.30;0.30;;;19.70;99.90;;;;;;5026464;28;20520;-76
2023/05/29 05:47:14;;;;;;;0.20;0.20;;;19.80;99.90;;;;;;5032106;28;20491;-75
2023/05/29 05:49:41;;;;;;;0.30;0.30;;;19.80;99.90;;;;;;5057320;28;20441;-76
2023/05/29 05:52:07;;;;;;;0.40;0.40;;;19.70;99.90;;;;;;5027016;28;20455;-75
2023/05/29 05:54:34;;;;;;;0.40;0.40;;;19.70;99.90;;;;;;5027942;28;20519;-75
2023/05/29 05:57:02;;;;;;;1.70;0.50;;;19.90;99.90;;;;;;5028375;28;20425;-75
2023/05/29 05:59:29;;;;;;;0.43;0.43;;;20.20;99.90;;;;;;5030749;28;20831;-75
2023/05/29 06:01:57;;;;;;;0.50;0.50;;;20.00;99.90;;;;;;5031968;28;20437;-75
2023/05/29 06:04:24;;;;;;;0.38;0.38;;;20.00;99.90;;;;;;5034570;28;20447;-76
2023/05/29 06:06:51;;;;;;;0.90;0.90;;;20.10;99.90;;;;;;5035824;28;20920;-75
2023/05/29 06:09:21;;;;;;;0.40;0.40;;;20.20;99.90;;;;;;5032006;28;20827;-75
2023/05/29 06:11:49;;;;;;;1.80;0.40;;;20.20;99.90;;;;;;5029555;28;20936;-75
2023/05/29 06:14:18;;;;;;;1.50;0.77;;;20.80;99.90;;;;;;5034081;28;20446;-76
2023/05/29 06:16:46;;;;;;;0.55;0.55;;;21.40;99.90;;;;;;5063621;28;20444;-76
2023/05/29 06:19:14;;;;;;;0.95;0.65;;;21.30;99.90;;;;;;5033627;28;20433;-77
2023/05/29 06:21:44;;;;;;;0.77;0.47;;;21.30;99.90;;;;;;5062172;28;21016;-77
2023/05/29 06:24:13;;;;;;;0.30;0.30;;;21.10;99.90;;;;;;5026986;28;20430;-76
2023/05/29 06:26:41;;;;;;;1.52;0.70;;;21.60;99.90;;;;;;5032188;28;20460;-77
2023/05/29 06:29:07;;;;;;;1.20;0.70;;;21.90;99.90;;;;;;5029959;28;20517;-76
2023/05/29 06:31:34;;;;;;;0.70;0.70;;;22.30;99.90;;;;;;5032290;28;20433;-76
2023/05/29 06:34:01;;;;;;;2.50;0.93;;;22.20;99.90;;;;;;5033184;28;20441;-76
2023/05/29 06:36:28;;;;;;;4.13;0.90;;;22.70;99.90;;;;;;5036490;28;21085;-77
2023/05/29 06:38:55;;;;;;;1.70;0.53;;;23.20;99.90;;;;;;5049626;28;20554;-76
2023/05/29 06:41:22;;;;;;;0.50;0.50;;;22.70;99.90;;;;;;5021228;28;20537;-76
2023/05/29 06:43:49;;;;;;;1.38;0.75;;;22.80;99.90;;;;;;5025288;28;21211;-77
2023/05/29 06:46:15;;;;;;;0.60;0.60;;;22.80;99.90;;;;;;5034031;28;20469;-77
2023/05/29 06:48:42;;;;;;;1.10;0.57;;;23.20;99.90;;;;;;5032863;28;20517;-76
2023/05/29 06:51:11;;;;;;;0.60;0.60;;;23.30;99.90;;;;;;5035166;28;20457;-76
2023/05/29 06:53:41;;;;;;;1.10;0.50;;;23.30;99.90;;;;;;5032655;28;20784;-76
2023/05/29 06:56:08;;;;;;;0.80;0.80;;;23.30;99.90;;;;;;5063807;28;20444;-77
2023/05/29 06:58:39;;;;;;;1.40;0.73;;;23.30;99.90;;;;;;5033641;28;20503;-77
2023/05/29 07:01:09;;;;;;;4.20;1.00;;;23.30;99.90;;;;;;5026432;28;20444;-77
2023/05/29 07:03:36;;;;;;;0.60;0.60;;;22.90;99.90;;;;;;5027375;28;20433;-77
2023/05/29 07:06:04;;;;;;;0.40;0.30;;;23.10;99.90;;;;;;5033413;28;20433;-77
2023/05/29 07:08:31;;;;;;;0.47;0.47;;;23.40;99.90;;;;;;5032213;28;20718;-77
2023/05/29 07:10:57;;;;;;;0.40;0.40;;;23.70;99.90;;;;;;5032398;28;20430;-77
2023/05/29 07:13:27;;;;;;;1.00;0.60;;;23.90;99.90;;;;;;5030563;28;20441;-77
2023/05/29 07:15:53;;;;;;;0.25;0.25;;;23.60;99.90;;;;;;5025288;28;21003;-77
2023/05/29 07:18:20;;;;;;;0.30;0.20;;;23.50;99.90;;;;;;5062797;28;20498;-77
2023/05/29 07:20:47;;;;;;;0.43;0.43;;;23.50;99.90;;;;;;5033467;28;20445;-76
2023/05/29 07:23:14;;;;;;;2.00;0.70;;;23.70;99.90;;;;;;5032388;28;20885;-77
2023/05/29 07:25:41;;;;;;;0.30;0.30;;;24.00;99.90;;;;;;5034305;28;20445;-77
2023/05/29 07:28:07;;;;;;;1.43;0.90;;;24.20;99.90;;;;;;5032348;28;20489;-77
2023/05/29 07:30:47;;;;;;;1.05;0.95;;;24.60;99.90;;;;;;5064106;28;20776;-76
2023/05/29 07:33:14;;;;;;;0.68;0.68;;;24.50;99.90;;;;;;5048932;28;20426;-77
2023/05/29 07:35:41;;;;;;;0.70;0.70;;;24.60;99.90;;;;;;5047639;28;20425;-77
2023/05/29 07:38:10;;;;;;;0.90;0.90;;;25.00;99.90;;;;;;5048709;28;20649;-76
2023/05/29 07:40:37;;;;;;;10.10;1.15;;;24.80;99.90;;;;;;5049045;28;20433;-76
2023/05/29 07:43:07;;;;;;;1.05;0.95;;;25.10;99.90;;;;;;5049019;28;20464;-77
2023/05/29 07:45:36;;;;;;;0.50;0.50;;;25.20;99.90;;;;;;5034914;28;20480;-76
2023/05/29 07:48:13;;;;;;;0.73;0.73;;;24.60;99.90;;;;;;5030295;28;20502;-76
2023/05/29 07:50:42;;;;;;;0.70;0.70;;;24.80;99.90;;;;;;5079850;28;20942;-76
2023/05/29 07:53:09;;;;;;;2.20;0.73;;;24.80;99.90;;;;;;5080385;28;20429;-77
2023/05/29 07:55:39;;;;;;;1.30;1.20;;;24.90;99.90;;;;;;5048802;28;20436;-77
2023/05/29 07:58:11;;;;;;;0.57;0.57;;;24.90;99.90;;;;;;5080620;28;20433;-76
2023/05/29 08:00:40;;;;;;;0.80;0.80;;;24.80;99.90;;;;;;5048377;28;20465;-76
2023/05/29 08:03:07;;;;;;;0.40;0.40;;;24.90;99.90;;;;;;5030705;28;20489;-77
2023/05/29 08:05:33;;;;;;;1.47;0.87;;;25.30;99.90;;;;;;5048237;28;20815;-76
2023/05/29 08:08:00;;;;;;;0.57;0.57;;;25.30;99.90;;;;;;5080387;28;20463;-76
2023/05/29 08:10:31;;;;;;;0.70;0.40;;;25.50;99.90;;;;;;5047919;28;20826;-77
2023/05/29 08:12:58;;;;;;;0.73;0.73;;;25.60;99.90;;;;;;5048395;28;20451;-76
2023/05/29 08:15:28;;;;;;;0.90;0.90;;;25.80;99.90;;;;;;5047142;28;20428;-77
2023/05/29 08:17:54;;;;;;;1.73;0.93;;;25.80;99.90;;;;;;5048661;28;20461;-76
2023/05/29 08:20:21;;;;;;;0.60;0.60;;;26.00;99.90;;;;;;5054587;28;20436;-76
2023/05/29 08:22:48;;;;;;;0.85;0.80;;;25.80;99.90;;;;;;5047124;28;21241;-77
2023/05/29 08:25:19;;;;;;;1.67;0.50;;;25.50;99.90;;;;;;5047078;28;20443;-77
2023/05/29 08:27:48;;;;;;;0.70;0.70;;;25.70;99.90;;;;;;5050995;28;20438;-76
2023/05/29 08:30:16;;;;;;;0.52;0.52;;;25.60;99.90;;;;;;5059292;28;20525;-77
2023/05/29 08:32:42;;;;;;;0.80;0.50;;;25.40;99.90;;;;;;5036554;28;21038;-77
2023/05/29 08:35:09;;;;;;;5.22;0.80;;;25.60;99.90;;;;;;5031403;28;20442;-76
2023/05/29 08:37:36;;;;;;;0.60;0.60;;;25.50;99.90;;;;;;5062813;28;20448;-76
2023/05/29 08:40:08;;;;;;;0.45;0.45;;;25.70;99.90;;;;;;5031611;28;20531;-77
2023/05/29 08:43:13;;;;;;;0.60;0.52;;;25.80;99.90;;;;;;5031383;28;20441;-76
2023/05/29 08:45:43;;;;;;;1.27;1.20;;;25.90;99.90;;;;;;5031429;28;20563;-76
2023/05/29 08:48:12;;;;;;;0.70;0.60;;;25.50;99.90;;;;;;5029920;28;20494;-76
2023/05/29 08:50:47;;;;;;;1.50;1.50;;;25.90;99.90;;;;;;5031246;28;20424;-76
2023/05/29 08:53:15;;;;;;;1.02;0.60;;;26.60;99.90;;;;;;5031969;28;20490;-77
2023/05/29 08:55:45;;;;;;;0.47;0.47;;;26.50;99.90;;;;;;5032796;28;20439;-76
2023/05/29 08:58:16;;;;;;;0.40;0.40;;;26.70;99.90;;;;;;5061235;28;20427;-76
2023/05/29 09:00:46;;;;;;;1.88;0.60;;;26.80;99.90;;;;;;5030408;28;20425;-76
2023/05/29 09:03:13;;;;;;;0.70;0.70;;;26.80;99.90;;;;;;5042438;28;20425;-77
2023/05/29 09:05:41;;;;;;;0.32;0.32;;;26.60;99.90;;;;;;5029663;28;20433;-76
2023/05/29 09:08:09;;;;;;;2.60;0.70;;;26.60;99.90;;;;;;5029040;28;20468;-76
2023/05/29 09:10:36;;;;;;;1.60;0.80;;;26.90;99.90;;;;;;5029344;28;20444;-76
2023/05/29 09:13:19;;;;;;;0.55;0.55;;;26.70;99.90;;;;;;5031165;28;20784;-76
2023/05/29 09:15:46;;;;;;;0.60;0.40;;;26.50;99.90;;;;;;5029201;28;20523;-76
2023/05/29 09:18:16;;;;;;;0.30;0.30;;;26.10;99.90;;;;;;5031273;28;20463;-76
2023/05/29 09:20:44;;;;;;;0.80;0.80;;;26.00;99.90;;;;;;5029724;28;20848;-76
2023/05/29 09:23:10;;;;;;;1.35;0.95;;;26.10;99.90;;;;;;5029569;28;20433;-77
2023/05/29 09:25:44;;;;;;;1.67;1.02;;;26.50;99.90;;;;;;5026932;28;20516;-76
2023/05/29 09:28:11;;;;;;;0.60;0.40;;;26.50;99.90;;;;;;5031117;28;20499;-77
2023/05/29 09:30:43;;;;;;;0.35;0.35;;;26.80;99.90;;;;;;5032818;28;20441;-76
2023/05/29 09:33:11;;;;;;;1.20;0.65;;;26.60;99.90;;;;;;5030943;28;22623;-76
2023/05/29 09:35:42;;;;;;;0.70;0.57;;;26.80;99.90;;;;;;5034707;28;20536;-77
2023/05/29 09:38:10;;;;;;;0.30;0.30;;;26.80;99.90;;;;;;5036645;28;20938;-76
2023/05/29 09:40:46;;;;;;;0.45;0.45;;;26.80;99.90;;;;;;5033089;28;20429;-76
2023/05/29 09:43:16;;;;;;;1.20;0.55;;;26.80;99.90;;;;;;5034427;28;21022;-77
2023/05/29 09:45:47;;;;;;;0.40;0.40;;;27.00;99.90;;;;;;5035713;28;20947;-77
2023/05/29 09:48:18;;;;;;;72.45;64.10;;;27.00;99.90;;;;;;5034129;28;20452;-77
2023/05/29 09:50:47;;;;;;;0.57;0.57;;;27.20;99.90;;;;;;5034822;28;20800;-76
2023/05/29 09:53:25;;;;;;;0.40;0.40;;;27.60;99.90;;;;;;5035462;28;20482;-76
2023/05/29 09:55:55;;;;;;;34.20;25.67;;;27.50;99.90;;;;;;5034625;28;20460;-76
2023/05/29 09:58:23;;;;;;;1.20;1.10;;;27.30;99.90;;;;;;5067649;28;20465;-76
2023/05/29 10:00:53;;;;;;;0.50;0.50;;;27.50;99.90;;;;;;5035511;28;20433;-77
2023/05/29 10:03:23;;;;;;;0.50;0.50;;;27.80;99.90;;;;;;5035657;28;20507;-77
2023/05/29 10:05:56;;;;;;;1.70;0.60;;;27.20;99.90;;;;;;5035124;28;20524;-76
2023/05/29 10:08:26;;;;;;;0.68;0.60;;;26.90;99.90;;;;;;5037299;28;20429;-77
2023/05/29 10:11:04;;;;;;;0.70;0.70;;;27.20;99.90;;;;;;5034322;28;20575;-76
2023/05/29 10:13:37;;;;;;;0.40;0.40;;;27.50;99.90;;;;;;5036904;28;20443;-76
2023/05/29 10:16:09;;;;;;;0.85;0.85;;;27.90;99.90;;;;;;5036014;28;20888;-76
2023/05/29 10:18:49;;;;;;;0.70;0.70;;;28.00;99.90;;;;;;5034352;28;20437;-76
2023/05/29 10:21:17;;;;;;;0.70;0.70;;;28.20;99.90;;;;;;5035801;28;20433;-77
2023/05/29 10:23:48;;;;;;;0.30;0.30;;;27.80;99.90;;;;;;5039213;28;20506;-76
2023/05/29 10:26:21;;;;;;;6.47;6.28;;;28.10;99.90;;;;;;5038277;28;20453;-75
2023/05/29 10:29:12;;;;;;;786.58;715.42;;;28.30;99.90;;;;;;5034286;28;20430;-75
2023/05/29 10:32:16;;;;;;;0.80;0.50;;;28.30;99.90;;;;;;5032761;28;20748;-74
2023/05/29 10:35:14;;;;;;;2.45;1.05;;;28.70;99.90;;;;;;5036756;28;20437;-75
2023/05/29 10:38:21;;;;;;;0.68;0.68;;;28.90;99.90;;;;;;5035889;28;20523;-74
2023/05/29 10:40:48;;;;;;;0.80;0.80;;;29.20;99.90;;;;;;5014546;28;20474;-74
2023/05/29 10:43:33;;;;;;;0.63;0.63;;;29.00;99.90;;;;;;5012097;28;22425;-74
2023/05/29 10:46:02;;;;;;;1.80;1.10;;;29.00;99.90;;;;;;5011287;28;20443;-75
2023/05/29 10:48:42;;;;;;;0.75;0.75;;;29.00;99.90;;;;;;5012045;28;20434;-75
2023/05/29 10:51:24;;;;;;;2.72;0.90;;;29.10;99.90;;;;;;5009638;28;20937;-74
2023/05/29 10:53:52;;;;;;;1.20;0.70;;;28.80;99.90;;;;;;5012743;28;22439;-74
2023/05/29 10:56:39;;;;;;;0.82;0.82;;;28.60;99.90;;;;;;5013626;28;20469;-73
2023/05/29 10:59:10;;;;;;;0.93;0.47;;;28.80;99.90;;;;;;5011128;28;20933;-74
2023/05/29 11:01:39;;;;;;;0.80;0.43;;;28.80;99.90;;;;;;5013117;28;20509;-74
2023/05/29 11:04:15;;;;;;;0.50;0.50;;;28.70;99.90;;;;;;5010479;28;21017;-73
2023/05/29 11:06:43;;;;;;;0.75;0.75;;;28.60;99.90;;;;;;5012212;28;21109;-74
2023/05/29 11:09:37;;;;;;;0.40;0.40;;;28.30;99.90;;;;;;5014693;28;20878;-75
2023/05/29 11:12:32;;;;;;;1.80;0.80;;;28.00;99.90;;;;;;5026695;28;20439;-74
2023/05/29 11:15:08;;;;;;;0.60;0.55;;;27.90;99.90;;;;;;5033526;28;22051;-74
2023/05/29 11:17:37;;;;;;;0.57;0.57;;;27.90;99.90;;;;;;5032448;28;20520;-73
2023/05/29 11:20:13;;;;;;;1.10;1.10;;;28.30;99.90;;;;;;5032260;28;20491;-73
2023/05/29 11:22:58;;;;;;;0.37;0.37;;;28.50;99.90;;;;;;5035954;28;20421;-73
2023/05/29 11:25:25;;;;;;;0.60;0.60;;;28.50;99.90;;;;;;5030391;28;20425;-74
2023/05/29 11:27:52;;;;;;;0.40;0.40;;;28.20;99.90;;;;;;5029325;28;20547;-73
2023/05/29 11:30:20;;;;;;;0.90;0.77;;;28.30;99.90;;;;;;5032029;28;20433;-74
2023/05/29 11:32:48;;;;;;;1.88;0.70;;;28.10;99.90;;;;;;5030966;28;20520;-73
2023/05/29 11:35:15;;;;;;;0.55;0.55;;;28.00;99.90;;;;;;5035396;28;20560;-74
2023/05/29 11:37:47;;;;;;;1.35;1.25;;;28.00;99.90;;;;;;5033845;28;20909;-74
2023/05/29 11:40:15;;;;;;;1.73;1.00;;;28.20;99.90;;;;;;5033225;28;20471;-73
2023/05/29 11:42:49;;;;;;;0.70;0.70;;;28.20;99.90;;;;;;5032580;28;20464;-74
2023/05/29 11:45:19;;;;;;;0.77;0.77;;;28.20;99.90;;;;;;5030819;28;20757;-73
2023/05/29 11:47:58;;;;;;;0.68;0.68;;;28.30;99.90;;;;;;5033503;28;20440;-74
2023/05/29 11:50:27;;;;;;;1.30;0.65;;;28.10;99.90;;;;;;5031988;28;20679;-73
2023/05/29 11:52:57;;;;;;;0.57;0.57;;;28.10;99.90;;;;;;5031672;28;20451;-74
2023/05/29 11:55:26;;;;;;;2.55;0.93;;;28.00;99.90;;;;;;5033268;28;20441;-73
2023/05/29 11:57:58;;;;;;;0.60;0.60;;;28.00;99.90;;;;;;5032257;28;20640;-74
2023/05/29 12:00:29;;;;;;;0.77;0.77;;;27.90;99.90;;;;;;5031917;28;20448;-74
2023/05/29 12:02:58;;;;;;;0.77;0.77;;;27.90;99.90;;;;;;5028244;28;20438;-74
2023/05/29 12:05:25;;;;;;;0.70;0.50;;;28.10;99.90;;;;;;5031650;28;20899;-73
2023/05/29 12:08:01;;;;;;;4.20;0.70;;;28.20;99.90;;;;;;5063015;28;20567;-74
2023/05/29 12:10:28;;;;;;;0.80;0.80;;;28.20;99.90;;;;;;5033929;28;20931;-74
2023/05/29 12:13:00;;;;;;;0.93;0.63;;;27.90;99.90;;;;;;5031032;28;20435;-74
2023/05/29 12:15:27;;;;;;;0.57;0.57;;;28.20;99.90;;;;;;5031131;28;20468;-74
2023/05/29 12:17:55;;;;;;;0.60;0.60;;;28.10;99.90;;;;;;5048347;28;20547;-74
2023/05/29 12:20:29;;;;;;;3.55;0.75;;;28.30;99.90;;;;;;5031550;28;20514;-74
2023/05/29 12:23:01;;;;;;;0.73;0.73;;;27.80;99.90;;;;;;5033408;28;20450;-74
2023/05/29 12:25:28;;;;;;;0.68;0.40;;;27.90;99.90;;;;;;5033760;28;20487;-73
2023/05/29 12:27:57;;;;;;;1.17;1.13;;;27.70;99.90;;;;;;5034243;28;20969;-75
2023/05/29 12:30:25;;;;;;;0.55;0.55;;;27.90;99.90;;;;;;5031129;28;20491;-74
2023/05/29 12:32:59;;;;;;;0.80;0.80;;;28.00;99.90;;;;;;5033868;28;20441;-73
2023/05/29 12:35:29;;;;;;;0.98;0.98;;;28.20;99.90;;;;;;5029622;28;20507;-74
2023/05/29 12:38:05;;;;;;;1.10;0.80;;;27.80;99.90;;;;;;5060490;28;20788;-74
2023/05/29 12:40:39;;;;;;;1.00;0.70;;;28.10;99.90;;;;;;5031996;28;20441;-74
2023/05/29 12:43:10;;;;;;;0.70;0.70;;;27.80;99.90;;;;;;5035123;28;20433;-73
2023/05/29 12:45:37;;;;;;;0.70;0.70;;;28.20;99.90;;;;;;5030831;28;21215;-73
2023/05/29 12:48:07;;;;;;;3.40;0.77;;;28.10;99.90;;;;;;5030997;28;20465;-74
2023/05/29 12:50:37;;;;;;;0.80;0.80;;;28.00;99.90;;;;;;5032889;28;20461;-74
2023/05/29 12:53:09;;;;;;;1.40;0.80;;;28.00;99.90;;;;;;5035341;28;20984;-74
2023/05/29 12:55:41;;;;;;;0.98;0.98;;;28.10;99.90;;;;;;5031296;28;20898;-74
2023/05/29 12:58:10;;;;;;;0.80;0.80;;;28.30;99.90;;;;;;5031502;28;20430;-73